createdAt,value
2023-03-28T00:01:03.076Z,2.00
2023-03-28T00:03:42.779Z,1.10
2023-03-28T00:06:13.566Z,1.05
2023-03-28T00:08:42.308Z,2.10
2023-03-28T00:11:20.458Z,1.38
2023-03-28T00:13:53.866Z,1.73
2023-03-28T00:16:22.411Z,1.15
2023-03-28T00:18:52.878Z,2.90
2023-03-28T00:21:24.224Z,0.57
2023-03-28T00:24:02.211Z,0.80
2023-03-28T00:26:32.940Z,1.17
2023-03-28T00:29:02.261Z,2.20
2023-03-28T00:31:30.847Z,0.68
2023-03-28T00:34:01.237Z,1.65
2023-03-28T00:36:33.026Z,1.25
2023-03-28T00:39:02.313Z,1.17
2023-03-28T00:41:34.300Z,0.60
2023-03-28T00:44:23.126Z,1.13
2023-03-28T00:46:51.918Z,0.60
2023-03-28T00:49:25.360Z,0.77
2023-03-28T00:51:57.705Z,1.15
2023-03-28T00:54:28.688Z,0.60
2023-03-28T00:57:00.546Z,1.52
2023-03-28T00:59:32.480Z,1.65
2023-03-28T01:02:01.405Z,0.95
2023-03-28T01:04:37.451Z,1.00
2023-03-28T01:07:07.252Z,0.50
2023-03-28T01:09:38.781Z,0.75
2023-03-28T01:12:07.670Z,0.95
2023-03-28T01:14:38.274Z,0.70
2023-03-28T01:17:07.824Z,1.17
2023-03-28T01:19:59.361Z,1.08
2023-03-28T01:23:07.134Z,0.70
2023-03-28T01:25:59.702Z,0.63
2023-03-28T01:28:48.602Z,1.13
2023-03-28T01:31:44.100Z,0.68
2023-03-28T01:35:05.940Z,0.65
2023-03-28T01:37:42.332Z,0.45
2023-03-28T01:40:26.890Z,0.40
2023-03-28T01:43:20.733Z,1.67
2023-03-28T01:45:59.713Z,0.93
2023-03-28T01:48:42.053Z,0.55
2023-03-28T01:51:17.155Z,0.70
2023-03-28T01:53:54.058Z,1.23
2023-03-28T01:56:31.130Z,0.88
2023-03-28T01:59:14.345Z,0.73
2023-03-28T02:02:07.736Z,1.77
2023-03-28T02:04:38.939Z,0.95
2023-03-28T02:07:09.144Z,0.80
2023-03-28T02:09:59.337Z,1.02
2023-03-28T02:12:51.560Z,0.93
2023-03-28T02:15:41.490Z,1.02
2023-03-28T02:18:42.360Z,1.77
2023-03-28T02:21:39.983Z,1.40
2023-03-28T02:24:33.321Z,0.70
2023-03-28T02:27:37.776Z,0.73
2023-03-28T02:30:14.096Z,0.63
2023-03-28T02:32:50.702Z,0.55
2023-03-28T02:35:26.937Z,0.73
2023-03-28T02:38:04.200Z,0.63
2023-03-28T02:40:47.329Z,0.98
2023-03-28T02:43:45.862Z,2.00
2023-03-28T02:46:21.058Z,1.08
2023-03-28T02:49:14.959Z,2.20
2023-03-28T02:51:48.481Z,0.80
2023-03-28T02:54:27.670Z,1.27
2023-03-28T02:57:29.508Z,0.88
2023-03-28T03:00:05.535Z,0.95
2023-03-28T03:02:33.741Z,0.90
2023-03-28T03:05:01.988Z,0.82
2023-03-28T03:07:31.089Z,0.70
2023-03-28T03:09:59.387Z,1.33
2023-03-28T03:12:27.140Z,2.28
2023-03-28T03:15:01.340Z,0.88
2023-03-28T03:17:49.297Z,1.13
2023-03-28T03:20:23.598Z,0.70
2023-03-28T03:22:51.616Z,1.73
2023-03-28T03:25:19.795Z,1.30
2023-03-28T03:28:08.791Z,3.22
2023-03-28T03:30:38.288Z,1.58
2023-03-28T03:33:22.343Z,1.23
2023-03-28T03:35:56.142Z,1.48
2023-03-28T03:38:24.051Z,0.85
2023-03-28T03:40:52.608Z,1.00
2023-03-28T03:43:20.987Z,1.42
2023-03-28T03:45:50.144Z,1.73
2023-03-28T03:48:17.850Z,1.65
2023-03-28T03:50:45.834Z,2.03
2023-03-28T03:53:16.852Z,0.80
2023-03-28T03:55:51.372Z,2.00
2023-03-28T03:58:20.397Z,0.70
2023-03-28T04:00:52.281Z,0.88
2023-03-28T04:03:36.886Z,0.77
2023-03-28T04:06:06.224Z,2.15
2023-03-28T04:08:34.415Z,2.35
2023-03-28T04:11:07.986Z,1.33
2023-03-28T04:13:40.090Z,1.55
2023-03-28T04:16:12.054Z,1.10
2023-03-28T04:18:58.082Z,0.75
2023-03-28T04:21:29.805Z,2.50
2023-03-28T04:24:02.016Z,1.38
2023-03-28T04:26:41.858Z,1.02
2023-03-28T04:29:13.777Z,2.45
2023-03-28T04:31:50.333Z,1.10
2023-03-28T04:34:41.232Z,1.08
2023-03-28T04:37:12.155Z,1.15
2023-03-28T04:39:54.305Z,1.10
2023-03-28T04:42:30.774Z,0.57
2023-03-28T04:45:17.998Z,1.60
2023-03-28T04:47:49.302Z,1.23
2023-03-28T04:50:21.750Z,1.10
2023-03-28T04:52:49.597Z,3.17
2023-03-28T04:55:18.173Z,0.88
2023-03-28T04:57:48.468Z,1.58
2023-03-28T05:00:19.344Z,1.83
2023-03-28T05:03:13.160Z,2.92
2023-03-28T05:05:58.836Z,1.95
2023-03-28T05:08:27.933Z,4.50
2023-03-28T05:10:55.830Z,2.00
2023-03-28T05:13:24.024Z,5.68
2023-03-28T05:16:02.816Z,2.72
2023-03-28T05:18:52.977Z,1.95
2023-03-28T05:21:28.290Z,2.90
2023-03-28T05:24:00.593Z,3.25
2023-03-28T05:26:28.957Z,2.17
2023-03-28T05:28:57.113Z,2.63
2023-03-28T05:31:26.265Z,2.88
2023-03-28T05:34:09.166Z,2.30
2023-03-28T05:36:45.744Z,7.80
2023-03-28T05:39:23.836Z,5.07
2023-03-28T05:41:58.368Z,4.50
2023-03-28T05:44:26.310Z,4.57
2023-03-28T05:47:17.875Z,7.05
2023-03-28T05:49:47.146Z,7.38
2023-03-28T05:52:15.592Z,8.05
2023-03-28T05:54:50.426Z,7.88
2023-03-28T05:57:22.131Z,7.43
2023-03-28T05:59:50.379Z,10.82
2023-03-28T06:02:23.307Z,8.57
2023-03-28T06:04:58.254Z,4.53
2023-03-28T06:07:39.135Z,5.95
2023-03-28T06:10:13.406Z,7.70
2023-03-28T06:12:46.528Z,9.98
2023-03-28T06:15:14.593Z,8.68
2023-03-28T06:17:46.698Z,7.72
2023-03-28T06:20:17.223Z,7.55
2023-03-28T06:22:45.783Z,10.38
2023-03-28T06:25:13.807Z,10.15
2023-03-28T06:27:42.269Z,9.82
2023-03-28T06:30:11.587Z,10.85
2023-03-28T06:32:51.101Z,11.85
2023-03-28T06:35:20.741Z,12.63
2023-03-28T06:37:49.105Z,11.48
2023-03-28T06:40:23.758Z,17.42
2023-03-28T06:42:51.758Z,17.52
2023-03-28T06:45:32.391Z,17.55
2023-03-28T06:48:05.690Z,13.30
2023-03-28T06:51:13.051Z,12.02
2023-03-28T06:53:42.810Z,12.45
2023-03-28T06:56:11.838Z,9.95
2023-03-28T06:58:40.186Z,9.38
2023-03-28T07:01:11.966Z,10.20
2023-03-28T07:03:51.496Z,8.35
2023-03-28T07:06:24.122Z,9.77
2023-03-28T07:08:52.133Z,9.25
2023-03-28T07:11:27.717Z,5.95
2023-03-28T07:13:55.745Z,5.90
2023-03-28T07:16:24.007Z,6.25
2023-03-28T07:18:52.018Z,5.13
2023-03-28T07:21:24.769Z,4.82
2023-03-28T07:23:56.574Z,5.53
2023-03-28T07:26:29.003Z,6.38
2023-03-28T07:28:57.253Z,6.65
2023-03-28T07:31:26.172Z,3.97
2023-03-28T07:33:59.291Z,3.92
2023-03-28T07:36:29.600Z,4.47
2023-03-28T07:39:05.858Z,5.28
2023-03-28T07:41:34.518Z,4.13
2023-03-28T07:44:02.512Z,5.75
2023-03-28T07:46:32.446Z,4.28
2023-03-28T07:49:01.109Z,2.67
2023-03-28T07:51:31.770Z,2.15
2023-03-28T07:53:59.905Z,2.33
2023-03-28T07:56:28.664Z,1.48
2023-03-28T07:59:14.019Z,1.38
2023-03-28T08:01:46.318Z,2.50
2023-03-28T08:04:15.064Z,2.05
2023-03-28T08:06:56.352Z,2.28
2023-03-28T08:09:24.905Z,3.58
2023-03-28T08:12:16.269Z,2.03
2023-03-28T08:14:44.602Z,1.75
2023-03-28T08:17:12.662Z,2.45
2023-03-28T08:19:40.883Z,3.03
2023-03-28T08:22:13.241Z,2.13
2023-03-28T08:24:48.399Z,2.28
2023-03-28T08:27:21.401Z,1.73
2023-03-28T08:29:53.090Z,2.42
2023-03-28T08:32:21.179Z,1.38
2023-03-28T08:34:49.313Z,0.85
2023-03-28T08:37:25.203Z,1.83
2023-03-28T08:39:54.024Z,0.70
2023-03-28T08:42:39.884Z,4.07
2023-03-28T08:45:24.905Z,1.98
2023-03-28T08:48:03.134Z,0.55
2023-03-28T08:50:35.025Z,1.65
2023-03-28T08:53:05.990Z,1.45
2023-03-28T08:55:40.468Z,1.35
2023-03-28T08:58:15.131Z,1.25
2023-03-28T09:00:43.275Z,1.38
2023-03-28T09:03:14.102Z,1.77
2023-03-28T09:05:47.452Z,1.35
2023-03-28T09:08:32.202Z,1.67
2023-03-28T09:11:06.871Z,0.60
2023-03-28T09:13:48.653Z,1.23
2023-03-28T09:16:42.751Z,1.67
2023-03-28T09:19:40.582Z,3.30
2023-03-28T09:22:37.264Z,1.63
2023-03-28T09:25:23.691Z,4.97
2023-03-28T09:28:00.886Z,3.92
2023-03-28T09:30:32.776Z,1.63
2023-03-28T09:33:05.988Z,1.80
2023-03-28T09:35:35.266Z,1.52
2023-03-28T09:38:21.453Z,2.22
2023-03-28T09:40:55.462Z,1.75
2023-03-28T09:43:31.740Z,1.38
2023-03-28T09:46:37.074Z,1.27
2023-03-28T09:49:26.333Z,0.98
2023-03-28T09:51:58.981Z,1.85
2023-03-28T09:54:31.073Z,1.30
2023-03-28T09:57:03.600Z,2.17
2023-03-28T09:59:50.270Z,2.42
2023-03-28T10:02:28.169Z,1.65
2023-03-28T10:05:00.479Z,1.67
2023-03-28T10:07:45.555Z,1.05
2023-03-28T10:10:32.198Z,1.30
2023-03-28T10:13:12.127Z,1.05
2023-03-28T10:15:45.970Z,1.20
2023-03-28T10:18:21.974Z,2.40
2023-03-28T10:21:13.149Z,2.17
2023-03-28T10:23:48.320Z,1.90
2023-03-28T10:26:22.405Z,1.42
2023-03-28T10:28:54.870Z,1.38
2023-03-28T10:31:32.147Z,0.52
2023-03-28T10:34:26.383Z,1.70
2023-03-28T10:37:26.294Z,1.13
2023-03-28T10:40:26.125Z,2.10
2023-03-28T10:43:35.786Z,1.45
2023-03-28T10:46:25.017Z,1.73
2023-03-28T10:49:21.188Z,0.80
2023-03-28T10:51:59.390Z,5.00
2023-03-28T10:54:44.187Z,0.77
2023-03-28T10:57:28.048Z,0.70
2023-03-28T11:00:04.146Z,1.25
2023-03-28T11:02:48.692Z,1.85
2023-03-28T11:05:33.787Z,0.73
2023-03-28T11:08:16.217Z,1.48
2023-03-28T11:11:01.343Z,1.05
2023-03-28T11:13:45.033Z,1.05
2023-03-28T11:16:21.974Z,2.58
2023-03-28T11:19:21.935Z,1.10
2023-03-28T11:22:00.536Z,1.02
2023-03-28T11:24:35.926Z,1.60
2023-03-28T11:27:42.010Z,1.25
2023-03-28T11:30:28.007Z,2.00
2023-03-28T11:33:15.720Z,1.02
2023-03-28T11:35:49.627Z,1.40
2023-03-28T11:38:22.549Z,1.98
2023-03-28T11:40:57.686Z,1.15
2023-03-28T11:43:56.321Z,0.75
2023-03-28T11:46:29.777Z,1.77
2023-03-28T11:49:09.447Z,2.25
2023-03-28T11:51:46.067Z,1.95
2023-03-28T11:54:20.774Z,1.05
2023-03-28T11:56:55.770Z,0.70
2023-03-28T11:59:49.554Z,0.70
2023-03-28T12:02:35.976Z,2.03
2023-03-28T12:05:10.635Z,1.02
2023-03-28T12:07:48.760Z,4.22
2023-03-28T12:10:28.777Z,1.17
2023-03-28T12:13:06.877Z,0.95
2023-03-28T12:15:44.255Z,0.82
2023-03-28T12:18:23.034Z,0.82
2023-03-28T12:21:00.868Z,1.15
2023-03-28T12:24:02.312Z,1.58
2023-03-28T12:27:01.380Z,2.15
2023-03-28T12:29:38.841Z,3.10
2023-03-28T12:35:02.154Z,1.02
2023-03-28T12:37:56.531Z,0.90
2023-03-28T12:40:34.437Z,2.45
2023-03-28T12:43:04.641Z,1.42
2023-03-28T12:45:37.221Z,1.27
2023-03-28T12:48:10.012Z,1.85
2023-03-28T12:50:46.769Z,1.02
2023-03-28T12:53:17.518Z,0.90
2023-03-28T12:55:48.985Z,1.33
2023-03-28T12:58:35.571Z,2.15
2023-03-28T13:01:44.742Z,0.50
2023-03-28T13:04:22.300Z,1.50
2023-03-28T13:07:10.483Z,1.00
2023-03-28T13:09:59.444Z,1.90
2023-03-28T13:12:37.825Z,0.95
2023-03-28T13:15:27.819Z,1.08
2023-03-28T13:18:37.597Z,2.42
2023-03-28T13:21:07.497Z,1.40
2023-03-28T13:23:47.815Z,1.17
2023-03-28T13:26:15.893Z,1.30
2023-03-28T13:28:47.598Z,2.22
2023-03-28T13:31:24.592Z,1.20
2023-03-28T13:33:58.822Z,1.48
2023-03-28T13:36:32.781Z,0.75
2023-03-28T13:39:21.014Z,1.58
2023-03-28T13:42:00.248Z,0.90
2023-03-28T13:44:41.148Z,1.30
2023-03-28T13:47:18.148Z,0.70
2023-03-28T13:49:51.479Z,1.20
2023-03-28T13:52:22.631Z,2.20
2023-03-28T13:54:56.567Z,1.52
2023-03-28T13:57:27.200Z,0.82
2023-03-28T13:59:58.825Z,0.70
2023-03-28T14:02:37.564Z,1.42
2023-03-28T14:05:14.349Z,2.00
2023-03-28T14:07:42.533Z,1.48
2023-03-28T14:10:57.101Z,2.22
2023-03-28T14:13:30.276Z,3.38
2023-03-28T14:15:59.883Z,1.30
2023-03-28T14:18:32.754Z,1.55
2023-03-28T14:21:01.583Z,1.30
2023-03-28T14:23:32.566Z,1.17
2023-03-28T14:26:02.585Z,1.02
2023-03-28T14:28:31.894Z,2.58
2023-03-28T14:31:01.801Z,3.13
2023-03-28T14:33:37.585Z,2.15
2023-03-28T14:36:06.511Z,4.10
2023-03-28T14:38:36.453Z,2.55
2023-03-28T14:41:13.749Z,2.35
2023-03-28T14:43:42.031Z,1.92
2023-03-28T14:46:11.710Z,2.42
2023-03-28T14:48:41.473Z,2.25
2023-03-28T14:51:14.032Z,1.70
2023-03-28T14:53:45.033Z,3.00
2023-03-28T14:56:17.869Z,4.10
2023-03-28T14:58:47.967Z,3.75
2023-03-28T15:01:23.161Z,1.52
2023-03-28T15:03:56.945Z,3.13
2023-03-28T15:06:25.447Z,2.55
2023-03-28T15:11:54.988Z,2.83
2023-03-28T15:14:31.145Z,1.65
2023-03-28T15:17:01.212Z,4.55
2023-03-28T15:19:36.009Z,2.88
2023-03-28T15:22:08.719Z,2.38
2023-03-28T15:24:38.680Z,1.48
2023-03-28T15:27:08.707Z,1.60
2023-03-28T15:29:39.398Z,1.67
2023-03-28T15:32:16.940Z,1.33
2023-03-28T15:34:47.390Z,2.17
2023-03-28T15:37:22.025Z,0.93
2023-03-28T15:39:51.264Z,5.32
2023-03-28T15:42:34.560Z,0.88
2023-03-28T15:45:39.136Z,1.58
2023-03-28T15:48:18.305Z,2.92
2023-03-28T15:50:51.343Z,1.77
2023-03-28T15:53:20.422Z,1.90
2023-03-28T15:55:50.029Z,1.30
2023-03-28T15:58:20.936Z,1.65
2023-03-28T16:00:50.186Z,1.70
2023-03-28T16:03:34.822Z,3.05
2023-03-28T16:06:23.006Z,3.20
2023-03-28T16:09:23.672Z,1.88
2023-03-28T16:11:58.201Z,1.80
2023-03-28T16:14:39.172Z,2.15
2023-03-28T16:17:31.684Z,1.60
2023-03-28T16:20:27.428Z,2.58
2023-03-28T16:22:58.730Z,0.70
2023-03-28T16:25:28.057Z,3.22
2023-03-28T16:27:56.839Z,1.23
2023-03-28T16:30:28.978Z,3.15
2023-03-28T16:32:57.110Z,1.13
2023-03-28T16:35:28.736Z,1.95
2023-03-28T16:37:56.760Z,3.40
2023-03-28T16:40:24.759Z,1.67
2023-03-28T16:42:53.023Z,0.68
2023-03-28T16:45:21.345Z,2.38
2023-03-28T16:47:49.429Z,1.75
2023-03-28T16:50:17.735Z,0.70
2023-03-28T16:52:47.114Z,1.15
2023-03-28T16:55:16.306Z,1.35
2023-03-28T16:57:44.489Z,1.88
2023-03-28T17:00:18.178Z,0.82
2023-03-28T17:02:47.680Z,1.45
2023-03-28T17:05:16.344Z,1.48
2023-03-28T17:07:44.277Z,1.02
2023-03-28T17:10:13.906Z,1.30
2023-03-28T17:12:42.440Z,4.45
2023-03-28T17:15:10.993Z,1.15
2023-03-28T17:17:39.004Z,2.33
2023-03-28T17:20:08.297Z,1.48
2023-03-28T17:22:36.383Z,1.80
2023-03-28T17:25:04.564Z,1.38
2023-03-28T17:27:34.028Z,1.55
2023-03-28T17:30:02.052Z,1.67
2023-03-28T17:32:30.811Z,0.90
2023-03-28T17:34:58.950Z,2.35
2023-03-28T17:37:26.936Z,3.30
2023-03-28T17:39:55.174Z,4.78
2023-03-28T17:42:23.288Z,15.75
2023-03-28T17:44:54.826Z,28.15
2023-03-28T17:47:23.067Z,27.45
2023-03-28T17:49:56.121Z,11.50
2023-03-28T17:52:24.792Z,8.38
2023-03-28T17:54:52.749Z,3.92
2023-03-28T17:57:21.173Z,4.72
2023-03-28T17:59:49.052Z,3.78
2023-03-28T18:02:18.623Z,6.90
2023-03-28T18:04:54.829Z,4.10
2023-03-28T18:07:28.517Z,6.65
2023-03-28T18:10:01.123Z,5.72
2023-03-28T18:12:29.035Z,5.53
2023-03-28T18:15:00.316Z,4.75
2023-03-28T18:17:30.486Z,4.55
2023-03-28T18:19:59.156Z,3.10
2023-03-28T18:22:29.304Z,3.67
2023-03-28T18:24:57.351Z,4.72
2023-03-28T18:27:25.359Z,5.57
2023-03-28T18:29:53.733Z,5.82
2023-03-28T18:32:21.599Z,7.75
2023-03-28T18:34:51.129Z,5.60
2023-03-28T18:37:19.421Z,5.50
2023-03-28T18:39:47.619Z,6.97
2023-03-28T18:42:15.483Z,11.88
2023-03-28T18:44:43.397Z,5.32
2023-03-28T18:47:11.328Z,6.00
2023-03-28T18:49:41.170Z,4.18
2023-03-28T18:52:10.864Z,2.92
2023-03-28T18:54:38.919Z,2.50
2023-03-28T18:57:06.914Z,4.65
2023-03-28T18:59:34.762Z,4.43
2023-03-28T19:02:04.503Z,5.72
2023-03-28T19:04:33.438Z,6.45
2023-03-28T19:07:02.464Z,6.63
2023-03-28T19:09:31.931Z,7.90
2023-03-28T19:12:01.997Z,22.88
2023-03-28T19:14:30.719Z,11.80
2023-03-28T19:16:58.906Z,11.55
2023-03-28T19:19:27.844Z,19.40
2023-03-28T19:21:55.984Z,15.38
2023-03-28T19:24:24.099Z,15.93
2023-03-28T19:26:54.089Z,12.10
2023-03-28T19:29:22.150Z,7.03
2023-03-28T19:31:52.330Z,5.80
2023-03-28T19:34:21.236Z,3.58
2023-03-28T19:36:49.065Z,15.57
2023-03-28T19:39:17.467Z,10.40
2023-03-28T19:41:45.955Z,11.38
2023-03-28T19:44:15.398Z,9.80
2023-03-28T19:46:43.345Z,9.35
2023-03-28T19:49:11.878Z,8.90
2023-03-28T19:51:39.718Z,6.72
2023-03-28T19:54:07.993Z,7.13
2023-03-28T19:56:36.528Z,7.28
2023-03-28T19:59:04.695Z,7.43
2023-03-28T20:01:34.232Z,6.93
2023-03-28T20:04:02.573Z,4.68
2023-03-28T20:06:30.752Z,5.47
2023-03-28T20:08:59.141Z,6.47
2023-03-28T20:11:27.119Z,5.88
2023-03-28T20:13:55.137Z,5.90
2023-03-28T20:16:23.154Z,9.05
2023-03-28T20:18:55.030Z,6.18
2023-03-28T20:21:23.402Z,6.82
2023-03-28T20:23:51.522Z,7.68
2023-03-28T20:26:22.316Z,10.05
2023-03-28T20:28:56.973Z,9.00
2023-03-28T20:31:25.557Z,6.70
2023-03-28T20:33:56.683Z,4.93
2023-03-28T20:36:24.819Z,5.88
2023-03-28T20:38:55.423Z,5.95
2023-03-28T20:41:24.470Z,3.58
2023-03-28T20:43:53.445Z,2.63
2023-03-28T20:46:22.472Z,3.05
2023-03-28T20:48:57.199Z,3.13
2023-03-28T20:51:29.773Z,3.78
2023-03-28T20:53:59.469Z,4.15
2023-03-28T20:56:29.337Z,3.15
2023-03-28T20:58:59.186Z,4.60
2023-03-28T21:01:30.464Z,2.97
2023-03-28T21:04:00.838Z,3.47
2023-03-28T21:06:31.749Z,1.90
2023-03-28T21:09:02.417Z,2.05
2023-03-28T21:11:32.901Z,2.85
2023-03-28T21:14:02.630Z,5.35
2023-03-28T21:16:33.127Z,4.43
2023-03-28T21:19:02.808Z,3.03
2023-03-28T21:21:34.430Z,4.25
2023-03-28T21:24:04.174Z,3.22
2023-03-28T21:26:32.917Z,5.90
2023-03-28T21:29:02.438Z,4.53
2023-03-28T21:31:31.372Z,7.32
2023-03-28T21:34:01.514Z,5.03
2023-03-28T21:36:31.544Z,5.00
2023-03-28T21:39:00.135Z,4.93
2023-03-28T21:41:28.545Z,3.45
2023-03-28T21:43:57.560Z,3.28
2023-03-28T21:46:26.073Z,3.05
2023-03-28T21:48:54.377Z,3.95
2023-03-28T21:51:22.665Z,2.05
2023-03-28T21:53:52.417Z,4.85
2023-03-28T21:56:20.488Z,1.73
2023-03-28T21:58:48.902Z,2.58
2023-03-28T22:01:20.409Z,3.20
2023-03-28T22:03:49.096Z,1.67
2023-03-28T22:06:18.711Z,3.30
2023-03-28T22:08:52.774Z,3.53
2023-03-28T22:11:30.919Z,2.33
2023-03-28T22:14:05.032Z,2.88
2023-03-28T22:16:35.228Z,3.00
2023-03-28T22:19:03.692Z,4.13
2023-03-28T22:21:32.122Z,2.90
2023-03-28T22:24:02.830Z,2.80
2023-03-28T22:26:33.095Z,2.80
2023-03-28T22:29:01.844Z,6.03
2023-03-28T22:31:30.225Z,9.52
2023-03-28T22:33:58.517Z,5.47
2023-03-28T22:36:27.319Z,7.72
2023-03-28T22:38:55.735Z,5.28
2023-03-28T22:41:24.058Z,7.07
2023-03-28T22:43:53.707Z,3.30
2023-03-28T22:46:22.817Z,3.58
2023-03-28T22:48:54.688Z,4.50
2023-03-28T22:51:25.344Z,3.05
2023-03-28T22:53:53.413Z,3.45
2023-03-28T22:56:23.634Z,1.42
2023-03-28T22:59:01.708Z,3.83
2023-03-28T23:01:30.322Z,4.05
2023-03-28T23:03:58.508Z,3.30
2023-03-28T23:06:27.584Z,1.90
2023-03-28T23:08:55.603Z,1.80
2023-03-28T23:11:23.762Z,2.67
2023-03-28T23:13:52.060Z,1.55
2023-03-28T23:16:21.763Z,2.22
2023-03-28T23:18:50.351Z,4.05
2023-03-28T23:21:19.048Z,1.63
2023-03-28T23:23:47.607Z,1.85
2023-03-28T23:26:16.002Z,1.98
2023-03-28T23:28:44.074Z,2.15
2023-03-28T23:31:12.624Z,2.97
2023-03-28T23:33:42.586Z,3.80
2023-03-28T23:36:12.187Z,3.00
2023-03-28T23:38:41.016Z,4.35
2023-03-28T23:41:09.756Z,5.05
2023-03-28T23:43:39.322Z,1.85
2023-03-28T23:46:08.254Z,3.33
2023-03-28T23:48:36.514Z,3.33
2023-03-28T23:51:07.173Z,2.85
2023-03-28T23:53:35.417Z,3.20
2023-03-28T23:56:04.010Z,4.05
2023-03-28T23:58:32.124Z,2.08
